Time;durP1;ratioP1;P1;durP2;ratioP2;P2;SDS_P1;SDS_P2;PMS_P1;PMS_P2;Temp;Humidity;BMP_temperature;BMP_pressure;BME280_temperature;BME280_humidity;BME280_pressure;Samples;Min_cycle;Max_cycle;Signal;HPM_P1;HPM_P2
2022/11/12 00:01:04;;;;;;;32.65;20.80;;;7.90;99.90;;;;;;5051648;28;20436;-71
2022/11/12 00:03:49;;;;;;;35.83;20.17;;;7.90;99.90;;;;;;5053488;28;20094;-71
2022/11/12 00:06:33;;;;;;;32.15;20.02;;;8.00;99.90;;;;;;5053484;28;20584;-71
2022/11/12 00:09:18;;;;;;;35.47;21.73;;;8.10;99.90;;;;;;5053368;28;20404;-71
2022/11/12 00:12:02;;;;;;;30.60;18.10;;;8.20;99.90;;;;;;5040127;28;20492;-71
2022/11/12 00:14:46;;;;;;;29.05;18.50;;;7.70;99.90;;;;;;5053204;28;20079;-70
2022/11/12 00:17:30;;;;;;;26.60;17.77;;;7.40;99.90;;;;;;5052921;28;20382;-71
2022/11/12 00:20:14;;;;;;;25.38;18.92;;;7.60;99.90;;;;;;5053351;28;20095;-71
2022/11/12 00:22:59;;;;;;;25.70;17.58;;;7.70;99.90;;;;;;5053130;28;20083;-71
2022/11/12 00:25:43;;;;;;;33.45;17.83;;;7.80;99.90;;;;;;5040227;28;20039;-71
2022/11/12 00:28:27;;;;;;;25.52;16.33;;;7.50;99.90;;;;;;5052922;28;20446;-71
2022/11/12 00:31:11;;;;;;;29.52;16.60;;;7.60;99.90;;;;;;5053085;28;20090;-71
2022/11/12 00:33:55;;;;;;;27.48;16.23;;;7.70;99.90;;;;;;5052957;28;20448;-71
2022/11/12 00:36:40;;;;;;;27.13;17.00;;;7.60;99.90;;;;;;5052862;28;20043;-71
2022/11/12 00:39:24;;;;;;;22.88;15.32;;;7.60;99.90;;;;;;5052028;28;20040;-71
2022/11/12 00:42:08;;;;;;;21.77;16.00;;;7.60;99.90;;;;;;5052860;28;20044;-71
2022/11/12 00:44:53;;;;;;;25.13;16.17;;;7.70;99.90;;;;;;5039793;28;20035;-71
2022/11/12 00:47:37;;;;;;;23.02;14.73;;;7.70;99.90;;;;;;5052751;28;20074;-72
2022/11/12 00:50:21;;;;;;;23.33;15.50;;;7.70;99.90;;;;;;5052851;28;20118;-71
2022/11/12 00:53:05;;;;;;;20.00;14.35;;;7.70;99.90;;;;;;5051641;28;20075;-72
2022/11/12 00:55:49;;;;;;;20.15;13.05;;;7.80;99.90;;;;;;5053115;28;20067;-71
2022/11/12 00:58:34;;;;;;;23.25;13.80;;;7.70;99.90;;;;;;5040488;28;20066;-71
2022/11/12 01:01:19;;;;;;;21.98;12.95;;;7.40;99.90;;;;;;5051599;28;20055;-71
2022/11/12 01:04:03;;;;;;;22.05;14.25;;;7.40;99.90;;;;;;5052401;28;20063;-71
2022/11/12 01:06:47;;;;;;;21.20;14.45;;;7.60;99.90;;;;;;5051800;28;20090;-71
2022/11/12 01:09:32;;;;;;;23.10;13.57;;;7.70;99.90;;;;;;5052844;28;20044;-71
2022/11/12 01:12:16;;;;;;;24.20;13.65;;;7.80;99.90;;;;;;5041063;28;20099;-71
2022/11/12 01:15:00;;;;;;;21.80;13.85;;;7.50;99.90;;;;;;5051286;28;20090;-71
2022/11/12 01:17:44;;;;;;;20.70;13.38;;;7.30;99.90;;;;;;5052392;28;20083;-71
2022/11/12 01:20:28;;;;;;;18.52;13.63;;;7.20;99.90;;;;;;5052905;28;20090;-71
2022/11/12 01:23:13;;;;;;;20.02;13.30;;;7.40;99.90;;;;;;5056706;28;20071;-71
2022/11/12 01:25:57;;;;;;;23.77;13.35;;;7.50;99.90;;;;;;5056652;28;20040;-71
2022/11/12 01:28:42;;;;;;;20.23;14.30;;;7.60;99.90;;;;;;5055250;28;20039;-71
2022/11/12 01:31:37;;;;;;;21.20;13.73;;;7.60;99.90;;;;;;5056363;28;20044;-71
2022/11/12 01:34:21;;;;;;;24.42;12.98;;;7.60;99.90;;;;;;5055344;28;20044;-71
2022/11/12 01:37:05;;;;;;;24.80;13.68;;;7.30;99.90;;;;;;5056537;28;20107;-71
2022/11/12 01:39:49;;;;;;;21.10;13.00;;;7.30;99.90;;;;;;5055370;28;20035;-71
2022/11/12 01:42:33;;;;;;;23.33;12.48;;;7.40;99.90;;;;;;5056186;28;20071;-71
2022/11/12 01:45:18;;;;;;;23.85;13.82;;;7.20;99.90;;;;;;5056560;28;20127;-72
2022/11/12 01:48:03;;;;;;;21.08;13.23;;;6.90;99.90;;;;;;5056094;28;20102;-71
2022/11/12 01:50:48;;;;;;;21.27;13.90;;;6.80;99.90;;;;;;5056016;28;20048;-71
2022/11/12 01:53:41;;;;;;;27.45;16.80;;;6.70;99.90;;;;;;5044554;28;20504;-71
2022/11/12 01:56:29;;;;;;;28.77;14.93;;;6.80;99.90;;;;;;5056308;28;20060;-71
2022/11/12 01:59:18;;;;;;;28.65;16.90;;;7.20;99.90;;;;;;5056055;28;20075;-71
2022/11/12 02:02:03;;;;;;;27.70;17.60;;;7.20;99.90;;;;;;5044318;28;20039;-71
2022/11/12 02:04:49;;;;;;;42.13;19.98;;;7.30;99.90;;;;;;5055003;28;20508;-71
2022/11/12 02:07:36;;;;;;;29.98;17.70;;;7.30;99.90;;;;;;5055963;28;20099;-71
2022/11/12 02:10:21;;;;;;;36.10;17.83;;;7.20;99.90;;;;;;5055328;28;20094;-71
2022/11/12 02:16:10;;;;;;;37.28;19.90;;;6.80;99.90;;;;;;5055519;28;20071;-71
2022/11/12 02:18:54;;;;;;;35.05;19.05;;;6.70;99.90;;;;;;5055873;28;20075;-73
2022/11/12 02:21:38;;;;;;;39.20;20.40;;;6.50;99.90;;;;;;5054458;28;20035;-71
2022/11/12 02:24:23;;;;;;;39.65;21.20;;;6.70;99.90;;;;;;5055806;28;20439;-70
2022/11/12 02:27:08;;;;;;;30.55;20.02;;;6.60;99.90;;;;;;5054642;28;20516;-70
2022/11/12 02:29:52;;;;;;;30.92;19.15;;;6.50;99.90;;;;;;5055328;28;20067;-70
2022/11/12 02:32:36;;;;;;;32.72;20.00;;;6.80;99.90;;;;;;5054722;28;20090;-70
2022/11/12 02:35:20;;;;;;;31.35;18.73;;;6.90;99.90;;;;;;5055183;28;20076;-72
2022/11/12 02:38:06;;;;;;;34.22;18.15;;;6.80;99.90;;;;;;5042197;28;20083;-72
2022/11/12 02:40:51;;;;;;;29.52;17.83;;;7.00;99.90;;;;;;5054762;28;20115;-72
2022/11/12 02:43:35;;;;;;;30.88;17.70;;;7.00;99.90;;;;;;5055460;28;20056;-72
2022/11/12 02:46:20;;;;;;;30.52;18.67;;;6.90;99.90;;;;;;5054522;28;20095;-72
2022/11/12 02:49:04;;;;;;;28.55;18.70;;;7.00;99.90;;;;;;5054689;28;20405;-72
2022/11/12 02:51:48;;;;;;;28.35;17.45;;;7.00;99.90;;;;;;5055170;28;20043;-72
2022/11/12 02:54:33;;;;;;;25.00;16.30;;;7.10;99.90;;;;;;5054721;28;20040;-72
2022/11/12 02:57:16;;;;;;;28.30;16.33;;;7.00;99.90;;;;;;5054859;28;20094;-71
2022/11/12 03:00:05;;;;;;;30.30;17.50;;;6.90;99.90;;;;;;5052962;28;20040;-72
2022/11/12 03:02:58;;;;;;;25.25;16.27;;;6.70;99.90;;;;;;5054660;28;20040;-72
2022/11/12 03:05:44;;;;;;;26.08;15.25;;;6.80;99.90;;;;;;5054441;28;20074;-70
2022/11/12 03:08:28;;;;;;;25.75;16.02;;;6.70;99.90;;;;;;5053459;28;20555;-72
2022/11/12 03:11:15;;;;;;;26.77;14.88;;;6.70;99.90;;;;;;5041369;28;20067;-72
2022/11/12 03:14:01;;;;;;;21.13;14.70;;;6.80;99.90;;;;;;5054423;28;20040;-73
2022/11/12 03:16:45;;;;;;;26.85;15.30;;;6.70;99.90;;;;;;5054276;28;20106;-73
2022/11/12 03:19:29;;;;;;;23.08;13.43;;;6.70;99.90;;;;;;5054416;28;20044;-73
2022/11/12 03:22:14;;;;;;;19.88;13.32;;;6.70;99.90;;;;;;5054302;28;20079;-72
2022/11/12 03:24:58;;;;;;;19.33;12.52;;;6.90;99.90;;;;;;5042134;28;20047;-72
2022/11/12 03:27:42;;;;;;;18.73;12.52;;;6.90;99.90;;;;;;5054267;28;20126;-72
2022/11/12 03:30:32;;;;;;;19.08;11.70;;;6.80;99.90;;;;;;5053942;28;20051;-72
2022/11/12 03:33:16;;;;;;;20.10;12.30;;;6.50;99.90;;;;;;5040293;28;20032;-72
2022/11/12 03:36:00;;;;;;;19.98;12.80;;;6.70;99.90;;;;;;5053818;28;20079;-72
2022/11/12 03:38:44;;;;;;;18.67;12.48;;;6.80;99.90;;;;;;5053974;28;20102;-72
2022/11/12 03:41:28;;;;;;;16.20;11.45;;;6.90;99.90;;;;;;5053659;28;20087;-72
2022/11/12 03:44:12;;;;;;;15.35;11.32;;;6.80;99.90;;;;;;5052316;28;20028;-72
2022/11/12 03:46:56;;;;;;;16.90;10.75;;;6.80;99.90;;;;;;5040570;28;20130;-73
2022/11/12 03:49:41;;;;;;;14.27;10.10;;;6.60;99.90;;;;;;5053799;28;20121;-73
2022/11/12 03:52:25;;;;;;;15.13;10.85;;;6.60;99.90;;;;;;5052691;28;20028;-73
2022/11/12 03:55:09;;;;;;;17.60;11.73;;;6.80;99.90;;;;;;5053266;28;20099;-72
2022/11/12 03:57:54;;;;;;;17.45;10.68;;;6.50;99.90;;;;;;5053859;28;20067;-72
2022/11/12 04:00:38;;;;;;;15.02;10.95;;;6.60;99.90;;;;;;5040390;28;20543;-72
2022/11/12 04:03:22;;;;;;;15.93;10.55;;;6.80;99.90;;;;;;5053692;28;20052;-73
2022/11/12 04:09:10;;;;;;;14.30;10.88;;;6.60;99.90;;;;;;5053290;28;20064;-72
2022/11/12 04:13:26;;;;;;;14.85;10.05;;;6.60;99.90;;;;;;5053330;28;20105;-73
2022/11/12 04:14:59;;;;;;;14.13;10.07;;;6.70;99.90;;;;;;5053349;28;20090;-72
2022/11/12 04:23:51;;;;;;;19.88;10.45;;;6.90;99.90;;;;;;5052961;28;20044;-73
2022/11/12 04:26:35;;;;;;;15.50;10.35;;;6.90;99.90;;;;;;5053516;28;20547;-73
2022/11/12 04:32:22;;;;;;;16.17;11.05;;;6.80;99.90;;;;;;5053193;28;20087;-73
2022/11/12 04:35:08;;;;;;;15.40;10.27;;;6.80;99.90;;;;;;5052882;28;20044;-73
2022/11/12 04:37:53;;;;;;;16.70;10.75;;;6.90;99.90;;;;;;5052500;28;20039;-72
2022/11/12 04:46:42;;;;;;;18.40;10.40;;;6.70;99.90;;;;;;5040295;28;20075;-73
2022/11/12 04:49:27;;;;;;;14.13;10.18;;;6.60;99.90;;;;;;5052594;28;20036;-73
2022/11/12 04:52:11;;;;;;;13.60;9.48;;;6.70;99.90;;;;;;5051892;28;20130;-72
2022/11/12 04:54:56;;;;;;;15.88;10.82;;;6.60;99.90;;;;;;5051443;28;20122;-72
2022/11/12 04:57:41;;;;;;;17.98;9.93;;;6.60;99.90;;;;;;5051662;28;20102;-72
2022/11/12 05:00:25;;;;;;;15.77;10.70;;;6.60;99.90;;;;;;5041008;28;20098;-73
2022/11/12 05:03:10;;;;;;;14.00;9.88;;;6.60;99.90;;;;;;5052184;28;20039;-72
2022/11/12 05:06:03;;;;;;;13.23;9.52;;;6.70;99.90;;;;;;5052872;28;20068;-72
2022/11/12 05:08:48;;;;;;;12.73;9.55;;;6.80;99.90;;;;;;5049652;28;20032;-73
2022/11/12 05:11:32;;;;;;;15.82;10.45;;;6.90;99.90;;;;;;5052198;28;20125;-73
2022/11/12 05:14:17;;;;;;;17.70;10.70;;;6.90;99.90;;;;;;5039027;28;20640;-72
2022/11/12 05:17:01;;;;;;;15.27;10.82;;;6.90;99.90;;;;;;5052376;28;20421;-72
2022/11/12 05:19:46;;;;;;;17.08;11.00;;;6.90;99.90;;;;;;5052782;28;20385;-72
2022/11/12 05:22:30;;;;;;;15.55;9.88;;;7.00;99.90;;;;;;5052364;28;20086;-72
2022/11/12 05:25:14;;;;;;;13.95;10.38;;;7.00;99.90;;;;;;5052800;28;20091;-73
2022/11/12 05:27:58;;;;;;;19.80;11.23;;;6.90;99.90;;;;;;5052273;28;20468;-73
2022/11/12 05:30:46;;;;;;;15.90;11.27;;;7.00;99.90;;;;;;5052020;28;20063;-72
2022/11/12 05:33:30;;;;;;;15.55;11.20;;;7.00;99.90;;;;;;5052085;28;20036;-73
2022/11/12 05:36:14;;;;;;;15.15;10.73;;;7.00;99.90;;;;;;5051957;28;20582;-72
2022/11/12 05:38:58;;;;;;;15.00;10.40;;;7.10;99.90;;;;;;5052443;28;20118;-72
2022/11/12 05:41:43;;;;;;;16.90;10.45;;;7.10;99.90;;;;;;5040311;28;20562;-73
2022/11/12 05:44:27;;;;;;;17.60;10.80;;;7.10;99.90;;;;;;5051872;28;20071;-72
2022/11/12 05:47:11;;;;;;;15.25;11.00;;;7.10;99.90;;;;;;5051139;28;20044;-71
2022/11/12 05:49:55;;;;;;;17.13;11.57;;;7.20;99.90;;;;;;5051082;28;20106;-72
2022/11/12 05:52:39;;;;;;;19.95;11.38;;;7.10;99.90;;;;;;5051781;28;20064;-72
2022/11/12 05:55:24;;;;;;;16.08;10.55;;;7.10;99.90;;;;;;5051874;28;20090;-72
2022/11/12 05:58:08;;;;;;;16.05;11.10;;;7.20;99.90;;;;;;5051145;28;20032;-72
2022/11/12 06:00:52;;;;;;;16.85;11.32;;;7.10;99.90;;;;;;5051998;28;20060;-72
2022/11/12 06:03:37;;;;;;;17.02;12.07;;;7.10;99.90;;;;;;5038443;28;20036;-72
2022/11/12 06:06:21;;;;;;;22.02;11.90;;;7.00;99.90;;;;;;5051986;28;20111;-72
2022/11/12 06:09:06;;;;;;;15.38;11.60;;;6.80;99.90;;;;;;5055123;28;20499;-72
2022/11/12 06:11:51;;;;;;;15.80;11.38;;;7.00;99.90;;;;;;5055770;28;20098;-72
2022/11/12 06:14:35;;;;;;;15.20;10.52;;;7.00;99.90;;;;;;5055641;28;20523;-72
2022/11/12 06:17:19;;;;;;;16.90;11.93;;;7.10;99.90;;;;;;5055354;28;20039;-72
2022/11/12 06:20:04;;;;;;;20.95;11.50;;;7.30;99.90;;;;;;5054331;28;20051;-71
2022/11/12 06:22:49;;;;;;;21.95;10.77;;;7.30;99.90;;;;;;5042170;28;20078;-72
2022/11/12 06:25:33;;;;;;;17.08;11.32;;;7.30;99.90;;;;;;5055338;28;20044;-72
2022/11/12 06:28:18;;;;;;;16.23;10.57;;;7.20;99.90;;;;;;5055054;28;20043;-72
2022/11/12 06:31:02;;;;;;;16.17;10.88;;;7.20;99.90;;;;;;5054209;28;20056;-72
2022/11/12 06:33:47;;;;;;;16.45;10.82;;;7.20;99.90;;;;;;5054312;28;20503;-72
2022/11/12 06:36:31;;;;;;;15.77;10.30;;;7.20;99.90;;;;;;5042228;28;20067;-72
2022/11/12 06:39:15;;;;;;;13.20;9.98;;;7.20;99.90;;;;;;5054613;28;20043;-72
2022/11/12 06:42:00;;;;;;;15.30;10.15;;;7.20;99.90;;;;;;5055355;28;20035;-72
2022/11/12 06:44:45;;;;;;;13.30;9.68;;;7.20;99.90;;;;;;5054839;28;20511;-72
2022/11/12 06:47:29;;;;;;;12.95;9.32;;;7.10;99.90;;;;;;5053434;28;20401;-72
2022/11/12 06:50:13;;;;;;;15.05;9.85;;;6.80;99.90;;;;;;5034178;28;20056;-72
2022/11/12 06:52:58;;;;;;;14.65;9.52;;;6.70;99.90;;;;;;5052879;28;20039;-72
2022/11/12 06:55:43;;;;;;;14.35;10.60;;;6.50;99.90;;;;;;5060293;28;20043;-71
2022/11/12 06:58:27;;;;;;;18.10;9.95;;;6.70;99.90;;;;;;5059821;28;20035;-72
2022/11/12 07:01:14;;;;;;;17.17;9.55;;;6.80;99.90;;;;;;5061508;28;20122;-71
2022/11/12 07:03:58;;;;;;;12.40;9.38;;;6.80;99.90;;;;;;5043530;28;20036;-71
2022/11/12 07:06:42;;;;;;;15.93;10.52;;;6.60;99.90;;;;;;5064376;28;20040;-71
2022/11/12 07:09:27;;;;;;;17.05;10.52;;;6.40;99.90;;;;;;5048089;28;20423;-72
2022/11/12 07:12:11;;;;;;;20.58;10.60;;;6.60;99.90;;;;;;5064970;28;20039;-71
2022/11/12 07:14:55;;;;;;;16.67;9.73;;;6.70;99.90;;;;;;5060145;28;20036;-72
2022/11/12 07:17:45;;;;;;;15.50;10.18;;;6.80;99.90;;;;;;5041466;28;20435;-71
2022/11/12 07:20:29;;;;;;;13.82;9.55;;;6.90;99.90;;;;;;5062172;28;20040;-71
2022/11/12 07:23:13;;;;;;;15.57;9.57;;;6.90;99.90;;;;;;5066927;28;20393;-71
2022/11/12 07:26:19;;;;;;;13.82;10.02;;;6.90;99.90;;;;;;5059891;28;20043;-72
2022/11/12 07:29:06;;;;;;;22.73;13.88;;;6.90;99.90;;;;;;5057770;28;20134;-71
2022/11/12 07:31:50;;;;;;;19.25;12.20;;;7.00;99.90;;;;;;5070680;28;20043;-71
2022/11/12 07:34:34;;;;;;;22.67;12.15;;;7.00;99.90;;;;;;5062529;28;20091;-71
2022/11/12 07:37:18;;;;;;;17.45;12.95;;;7.20;99.90;;;;;;5051966;28;20403;-71
2022/11/12 07:40:04;;;;;;;17.92;12.30;;;7.10;99.90;;;;;;5044587;28;20543;-71
2022/11/12 07:42:48;;;;;;;21.17;11.50;;;7.00;99.90;;;;;;5052370;28;20048;-71
2022/11/12 07:45:32;;;;;;;20.50;11.65;;;7.30;99.90;;;;;;5053141;28;20398;-71
2022/11/12 07:48:16;;;;;;;20.67;12.10;;;7.40;99.90;;;;;;5030793;28;20091;-71
2022/11/12 07:51:15;;;;;;;23.25;12.38;;;7.50;99.90;;;;;;5053360;28;20055;-71
2022/11/12 07:53:59;;;;;;;20.50;12.18;;;7.70;99.90;;;;;;5055200;28;20413;-71
2022/11/12 07:56:44;;;;;;;29.65;17.02;;;7.70;99.90;;;;;;5054287;28;20044;-71
2022/11/12 07:59:28;;;;;;;18.77;12.63;;;7.80;99.90;;;;;;5051734;28;20040;-72
2022/11/12 08:02:12;;;;;;;17.20;10.60;;;8.00;99.90;;;;;;5046139;28;20044;-71
2022/11/12 08:04:56;;;;;;;20.90;10.32;;;8.10;99.90;;;;;;5039591;28;20060;-71
2022/11/12 08:07:40;;;;;;;16.42;10.68;;;8.20;99.90;;;;;;5035768;28;20083;-71
2022/11/12 08:10:24;;;;;;;26.00;13.13;;;8.30;99.90;;;;;;5038556;28;20559;-71
2022/11/12 08:13:08;;;;;;;19.63;14.13;;;8.40;99.90;;;;;;5037442;28;20084;-71
2022/11/12 08:15:55;;;;;;;25.13;16.05;;;8.50;99.90;;;;;;5042309;28;20048;-72
2022/11/12 08:18:40;;;;;;;21.45;13.13;;;8.50;99.90;;;;;;5042902;28;20039;-72
2022/11/12 08:21:25;;;;;;;20.83;12.68;;;8.50;99.90;;;;;;5033353;28;20032;-72
2022/11/12 08:24:09;;;;;;;19.42;13.07;;;8.80;99.90;;;;;;5040203;28;20082;-72
2022/11/12 08:26:53;;;;;;;16.33;11.82;;;8.80;99.90;;;;;;5039395;28;20043;-72
2022/11/12 08:29:38;;;;;;;18.90;12.32;;;8.80;99.90;;;;;;5037351;28;20096;-72
2022/11/12 08:32:22;;;;;;;36.03;21.98;;;8.80;99.90;;;;;;5039877;28;20067;-71
2022/11/12 08:35:06;;;;;;;26.13;18.17;;;8.80;99.90;;;;;;5053222;28;20151;-71
2022/11/12 08:37:50;;;;;;;28.42;15.63;;;9.00;99.90;;;;;;5052237;28;20083;-72
2022/11/12 08:40:34;;;;;;;27.25;13.73;;;9.40;99.90;;;;;;5053038;28;20032;-72
2022/11/12 08:43:19;;;;;;;24.15;13.63;;;9.60;99.90;;;;;;5052708;28;20040;-72
2022/11/12 08:46:04;;;;;;;35.17;16.10;;;9.80;99.90;;;;;;5052567;28;20051;-72
2022/11/12 08:48:48;;;;;;;33.72;16.48;;;9.80;99.90;;;;;;5053591;28;20535;-71
2022/11/12 08:51:33;;;;;;;21.83;12.32;;;9.90;99.90;;;;;;5054463;28;20044;-71
2022/11/12 08:54:17;;;;;;;28.30;12.45;;;10.00;99.90;;;;;;5055447;28;20090;-72
2022/11/12 08:57:02;;;;;;;21.92;11.05;;;10.30;99.90;;;;;;5053307;28;20040;-72
2022/11/12 08:59:46;;;;;;;16.50;9.45;;;10.70;99.90;;;;;;5052000;28;20044;-72
2022/11/12 09:02:31;;;;;;;18.63;9.43;;;11.00;99.90;;;;;;5057049;28;20278;-72
2022/11/12 09:05:15;;;;;;;24.70;9.30;;;11.60;99.90;;;;;;5051428;28;20040;-72
2022/11/12 09:08:05;;;;;;;16.95;9.50;;;12.00;99.90;;;;;;5051548;28;20071;-72
2022/11/12 09:10:50;;;;;;;19.27;8.93;;;12.20;99.90;;;;;;5044579;28;20060;-72
2022/11/12 09:13:35;;;;;;;14.02;10.07;;;12.30;99.90;;;;;;5037040;28;20148;-72
2022/11/12 09:16:20;;;;;;;11.90;8.77;;;12.80;99.90;;;;;;5043396;28;20524;-72
2022/11/12 09:19:04;;;;;;;18.13;9.50;;;13.20;99.90;;;;;;5036078;28;20032;-72
2022/11/12 09:21:49;;;;;;;21.33;9.50;;;13.10;99.90;;;;;;5033569;28;20559;-72
2022/11/12 09:24:33;;;;;;;15.82;8.90;;;13.00;99.90;;;;;;5039641;28;20040;-72
2022/11/12 09:27:17;;;;;;;12.50;8.15;;;13.10;99.90;;;;;;5051998;28;20047;-72
2022/11/12 09:30:01;;;;;;;20.88;8.57;;;13.60;99.90;;;;;;5041013;28;20071;-72
2022/11/12 09:32:45;;;;;;;19.08;9.48;;;13.80;99.90;;;;;;5034821;28;20045;-72
2022/11/12 09:35:29;;;;;;;20.33;8.05;;;14.40;99.90;;;;;;5033226;28;20048;-72
2022/11/12 09:38:14;;;;;;;15.85;8.65;;;14.30;99.90;;;;;;5044377;28;20083;-71
2022/11/12 09:41:23;;;;;;;18.27;9.48;;;13.90;99.90;;;;;;5037158;28;20059;-72
2022/11/12 09:44:18;;;;;;;18.63;9.38;;;14.40;99.90;;;;;;5048368;28;20109;-71
2022/11/12 09:47:10;;;;;;;16.00;8.70;;;14.10;99.90;;;;;;5035944;28;20167;-71
2022/11/12 09:50:19;;;;;;;17.63;7.70;;;13.90;99.90;;;;;;5035467;28;20052;-71
2022/11/12 09:53:16;;;;;;;13.82;8.95;;;13.70;99.90;;;;;;5034675;28;20092;-71
2022/11/12 09:56:06;;;;;;;11.88;7.63;;;13.80;99.90;;;;;;5033588;28;20060;-71
2022/11/12 09:58:51;;;;;;;11.90;7.63;;;14.10;99.90;;;;;;5044077;28;20083;-72
2022/11/12 10:01:47;;;;;;;8.80;7.05;;;15.10;99.90;;;;;;5038094;28;20132;-72
2022/11/12 10:04:48;;;;;;;18.10;7.07;;;15.30;99.90;;;;;;5040604;28;20041;-72
2022/11/12 10:08:04;;;;;;;10.13;7.70;;;14.90;99.90;;;;;;5050339;28;20044;-71
2022/11/12 10:11:27;;;;;;;12.38;8.65;;;15.20;99.90;;;;;;5039041;28;20358;-72
2022/11/12 10:14:47;;;;;;;12.13;8.13;;;16.10;99.90;;;;;;5053765;28;20056;-73
2022/11/12 10:18:02;;;;;;;14.65;7.00;;;15.30;99.90;;;;;;5055579;28;20044;-72
2022/11/12 10:20:54;;;;;;;24.27;7.10;;;15.60;99.90;;;;;;5054455;28;20118;-72
2022/11/12 10:23:44;;;;;;;38.30;7.53;;;16.10;99.90;;;;;;5055535;28;20044;-72
2022/11/12 10:26:31;;;;;;;12.45;7.00;;;16.40;99.90;;;;;;5043760;28;20086;-72
2022/11/12 10:29:23;;;;;;;8.02;6.72;;;17.30;99.90;;;;;;5053393;28;20504;-72
2022/11/12 10:32:12;;;;;;;;;;;17.70;99.90;;;;;;5055097;28;20094;-72
2022/11/12 10:34:56;;;;;;;11.00;6.55;;;17.20;99.90;;;;;;5055096;28;19915;-72
2022/11/12 10:37:50;;;;;;;9.95;6.75;;;17.60;99.90;;;;;;5055045;28;20039;-72
2022/11/12 10:40:40;;;;;;;10.45;6.40;;;17.30;99.90;;;;;;5055036;28;20503;-72
2022/11/12 10:43:24;;;;;;;9.23;5.47;;;17.90;99.90;;;;;;5054141;28;20079;-72
2022/11/12 10:46:18;;;;;;;8.02;5.72;;;18.60;99.90;;;;;;5053674;28;20106;-72
2022/11/12 10:49:15;;;;;;;7.35;5.38;;;18.90;99.90;;;;;;5047293;28;20075;-72
2022/11/12 10:51:59;;;;;;;7.95;6.18;;;18.40;99.90;;;;;;5043625;28;20098;-72
2022/11/12 10:54:44;;;;;;;10.63;6.00;;;18.70;99.90;;;;;;5053499;28;20044;-72
2022/11/12 10:57:28;;;;;;;8.57;5.80;;;18.60;99.90;;;;;;5054313;28;20048;-72
2022/11/12 11:00:17;;;;;;;9.43;5.10;;;19.20;99.90;;;;;;5055253;28;20040;-71
2022/11/12 11:03:06;;;;;;;6.03;4.70;;;18.80;99.90;;;;;;5054373;28;20074;-72
2022/11/12 11:05:52;;;;;;;5.95;4.15;;;18.70;99.90;;;;;;5043030;28;20043;-72
2022/11/12 11:08:43;;;;;;;7.60;4.43;;;19.10;99.90;;;;;;5049202;28;20040;-72
2022/11/12 11:11:28;;;;;;;8.48;4.18;;;20.00;99.90;;;;;;5050865;28;20075;-72
2022/11/12 11:14:28;;;;;;;6.18;4.47;;;20.00;99.90;;;;;;5054376;28;20083;-71
2022/11/12 11:17:17;;;;;;;7.40;3.97;;;19.70;99.90;;;;;;5056021;28;20071;-72
2022/11/12 11:20:29;;;;;;;7.32;4.43;;;19.70;99.90;;;;;;5046086;28;20048;-72
2022/11/12 11:23:25;;;;;;;;;;;19.90;99.90;;;;;;5049796;28;20031;-72
2022/11/12 11:26:28;;;;;;;10.63;5.07;;;19.50;99.90;;;;;;5058561;28;19919;-72
2022/11/12 11:29:13;;;;;;;9.75;4.68;;;20.00;99.90;;;;;;5052565;28;20063;-72
2022/11/12 11:32:06;;;;;;;10.35;5.18;;;20.40;99.90;;;;;;5052502;28;20179;-72
2022/11/12 11:35:18;;;;;;;8.50;4.72;;;20.10;99.90;;;;;;5065774;28;20036;-72
2022/11/12 11:38:11;;;;;;;;;;;19.70;99.90;;;;;;5058251;28;20087;-72
2022/11/12 11:41:21;;;;;;;5.65;4.22;;;20.10;99.90;;;;;;5058040;28;20379;-72
2022/11/12 11:44:37;;;;;;;9.02;5.22;;;20.80;99.90;;;;;;5066091;28;20081;-72
2022/11/12 11:47:30;;;;;;;7.35;4.65;;;19.70;99.90;;;;;;5054005;28;20039;-71
2022/11/12 11:50:31;;;;;;;11.52;5.00;;;19.40;99.90;;;;;;5056523;28;20086;-72
2022/11/12 11:53:28;;;;;;;7.93;4.68;;;21.00;99.90;;;;;;5052480;28;20050;-72
2022/11/12 11:56:30;;;;;;;9.43;4.72;;;20.20;99.90;;;;;;5054986;28;20051;-71
2022/11/12 11:59:31;;;;;;;6.10;5.15;;;19.60;99.90;;;;;;5058393;28;20180;-71
2022/11/12 12:02:53;;;;;;;7.85;4.78;;;20.50;99.90;;;;;;5056280;28;20551;-71
2022/11/12 12:06:01;;;;;;;10.27;5.50;;;21.80;99.10;;;;;;5054914;28;20031;-71
2022/11/12 12:09:01;;;;;;;11.93;4.85;;;21.20;99.60;;;;;;5054304;28;20082;-71
2022/11/12 12:12:02;;;;;;;6.72;4.43;;;21.20;99.20;;;;;;5062356;28;20102;-71
2022/11/12 12:14:58;;;;;;;9.15;4.30;;;20.80;99.50;;;;;;5060474;28;20060;-72
2022/11/12 12:17:47;;;;;;;7.45;5.03;;;20.30;99.90;;;;;;5044740;28;20062;-71
2022/11/12 12:20:59;;;;;;;6.85;4.55;;;21.00;99.90;;;;;;5051306;28;20040;-72
2022/11/12 12:24:18;;;;;;;10.75;4.63;;;21.10;99.80;;;;;;5051274;28;20136;-72
2022/11/12 12:27:07;;;;;;;8.52;5.68;;;22.50;97.80;;;;;;5052714;28;20036;-72
2022/11/12 12:29:56;;;;;;;11.00;5.28;;;21.10;99.10;;;;;;5052599;28;20055;-72
2022/11/12 12:32:48;;;;;;;8.40;5.38;;;20.90;99.70;;;;;;5052884;28;20040;-71
2022/11/12 12:35:43;;;;;;;5.97;4.70;;;21.30;99.10;;;;;;5051840;28;20051;-72
2022/11/12 12:38:49;;;;;;;6.80;4.97;;;21.30;99.10;;;;;;5042662;28;20075;-71
2022/11/12 12:41:58;;;;;;;13.95;7.32;;;21.30;99.30;;;;;;5039111;28;20032;-72
2022/11/12 12:44:59;;;;;;;8.43;5.78;;;21.90;99.10;;;;;;5053102;28;20082;-72
2022/11/12 12:47:46;;;;;;;17.90;5.60;;;23.20;97.20;;;;;;5052788;28;20528;-72
2022/11/12 12:50:31;;;;;;;11.95;5.28;;;23.60;96.20;;;;;;5051358;28;20047;-72
2022/11/12 12:53:28;;;;;;;10.65;5.20;;;23.00;96.30;;;;;;5052461;28;20039;-71
2022/11/12 12:56:12;;;;;;;11.15;5.05;;;23.30;96.30;;;;;;5052367;28;20044;-72
2022/11/12 12:59:02;;;;;;;15.98;5.65;;;22.10;97.80;;;;;;5052694;28;20086;-72
2022/11/12 13:01:54;;;;;;;6.50;5.25;;;21.60;98.70;;;;;;5052640;28;20048;-73
2022/11/12 13:04:54;;;;;;;9.63;5.80;;;21.70;98.30;;;;;;5052080;28;20405;-72
2022/11/12 13:07:38;;;;;;;8.05;5.45;;;21.80;98.60;;;;;;5051700;28;20039;-72
2022/11/12 13:10:40;;;;;;;7.32;5.15;;;22.00;98.10;;;;;;5051344;28;20048;-72
2022/11/12 13:13:31;;;;;;;9.40;5.50;;;21.60;99.60;;;;;;5052345;28;20459;-72
2022/11/12 13:16:50;;;;;;;9.50;6.40;;;22.70;98.00;;;;;;5051258;28;20103;-72
2022/11/12 13:19:35;;;;;;;13.10;6.03;;;22.20;97.90;;;;;;5040102;28;20472;-72
2022/11/12 13:22:22;;;;;;;11.18;5.57;;;22.60;97.80;;;;;;5052556;28;20118;-72
2022/11/12 13:25:07;;;;;;;8.88;6.20;;;23.70;96.50;;;;;;5052213;28;20048;-72
2022/11/12 13:27:51;;;;;;;11.20;5.82;;;23.70;96.20;;;;;;5037625;28;20044;-72
2022/11/12 13:30:35;;;;;;;10.80;6.88;;;24.80;95.20;;;;;;5051934;28;20055;-72
2022/11/12 13:33:30;;;;;;;12.82;5.82;;;24.30;95.30;;;;;;5051757;28;20083;-72
2022/11/12 13:36:26;;;;;;;7.68;5.30;;;24.20;94.90;;;;;;5050796;28;20396;-72
2022/11/12 13:39:18;;;;;;;12.27;6.25;;;25.00;95.00;;;;;;5051570;28;20453;-73
2022/11/12 13:45:22;;;;;;;11.43;5.55;;;24.00;95.10;;;;;;5041624;28;20072;-71
2022/11/12 13:48:10;;;;;;;9.05;5.57;;;23.60;96.00;;;;;;5046055;28;20191;-72
2022/11/12 13:51:00;;;;;;;9.40;5.85;;;24.60;95.30;;;;;;5050957;28;20373;-72
2022/11/12 13:53:45;;;;;;;8.50;5.28;;;24.80;94.80;;;;;;5047865;28;20424;-72
2022/11/12 13:56:34;;;;;;;8.95;5.20;;;24.70;94.70;;;;;;5052341;28;20040;-72
2022/11/12 13:59:24;;;;;;;8.57;5.68;;;25.20;93.80;;;;;;5053075;28;20067;-72
2022/11/12 14:02:21;;;;;;;7.45;5.18;;;25.20;93.90;;;;;;5050541;28;20086;-72
2022/11/12 14:05:17;;;;;;;8.15;5.25;;;24.50;94.60;;;;;;5057497;28;20103;-72
2022/11/12 14:08:13;;;;;;;7.80;5.20;;;24.50;94.60;;;;;;5052881;28;20158;-72
2022/11/12 14:11:33;;;;;;;8.32;6.15;;;23.20;96.00;;;;;;5050678;28;20517;-72
2022/11/12 14:14:22;;;;;;;7.85;5.63;;;22.80;96.90;;;;;;5050782;28;20091;-72
2022/11/12 14:17:31;;;;;;;9.52;5.43;;;24.80;95.30;;;;;;5051007;28;20124;-72
2022/11/12 14:20:19;;;;;;;16.67;5.60;;;24.80;93.90;;;;;;5051815;28;20059;-71
2022/11/12 14:23:24;;;;;;;7.50;4.78;;;23.90;95.10;;;;;;5040431;28;20036;-73
2022/11/12 14:26:11;;;;;;;9.98;5.32;;;24.40;94.70;;;;;;5051134;28;20028;-71
2022/11/12 14:28:55;;;;;;;8.23;5.65;;;24.10;95.00;;;;;;5053046;28;20472;-72
2022/11/12 14:31:40;;;;;;;8.98;5.57;;;23.90;95.50;;;;;;5044469;28;20048;-71
2022/11/12 14:34:32;;;;;;;8.90;5.05;;;25.20;94.40;;;;;;5054761;28;20569;-72
2022/11/12 14:37:55;;;;;;;7.50;5.15;;;25.30;93.90;;;;;;5054352;28;20100;-71
2022/11/12 14:40:48;;;;;;;16.83;5.75;;;25.60;93.00;;;;;;5050024;28;20033;-72
2022/11/12 14:43:35;;;;;;;10.32;5.57;;;26.20;93.30;;;;;;5044445;28;20043;-71
2022/11/12 14:46:29;;;;;;;7.80;4.90;;;25.70;93.10;;;;;;5054456;28;20048;-70
2022/11/12 14:49:34;;;;;;;13.05;6.13;;;25.40;93.40;;;;;;5055058;28;20516;-70
2022/11/12 14:52:33;;;;;;;9.60;4.90;;;25.10;93.30;;;;;;5046588;28;20120;-69
2022/11/12 14:55:28;;;;;;;8.82;5.38;;;25.00;93.60;;;;;;5054888;28;20044;-69